Time;durP1;ratioP1;P1;durP2;ratioP2;P2;SDS_P1;SDS_P2;PMS_P1;PMS_P2;Temp;Humidity;BMP_temperature;BMP_pressure;BME280_temperature;BME280_humidity;BME280_pressure;Samples;Min_cycle;Max_cycle;Signal;HPM_P1;HPM_P2
2023/04/09 00:01:05;;;;;;;26.02;17.35;;;;;;;;;;4943320;28;20051;-71
2023/04/09 00:03:32;;;;;;;33.78;20.10;;;;;;;;;;4941753;28;20053;-70
2023/04/09 00:05:59;;;;;;;29.83;20.23;;;;;;;;;;4943524;28;20055;-70
2023/04/09 00:08:25;;;;;;;32.08;20.27;;;;;;;;;;4934936;29;20079;-70
2023/04/09 00:10:52;;;;;;;31.45;19.67;;;;;;;;;;4932975;29;20067;-69
2023/04/09 00:13:19;;;;;;;32.45;20.15;;;;;;;;;;4943521;28;20574;-69
2023/04/09 00:16:01;;;;;;;34.50;20.52;;;;;;;;;;4939420;28;20483;-70
2023/04/09 00:18:27;;;;;;;27.63;17.42;;;;;;;;;;4942228;29;20165;-69
2023/04/09 00:20:53;;;;;;;33.15;20.95;;;;;;;;;;4940399;29;20057;-69
2023/04/09 00:23:21;;;;;;;30.98;18.77;;;;;;;;;;4942304;28;20510;-69
2023/04/09 00:25:47;;;;;;;32.90;20.10;;;;;;;;;;4941520;28;20044;-69
2023/04/09 00:28:14;;;;;;;32.20;20.33;;;;;;;;;;4933072;28;20049;-70
2023/04/09 00:30:41;;;;;;;31.90;19.48;;;;;;;;;;4932986;28;20138;-69
2023/04/09 00:33:07;;;;;;;33.58;20.33;;;;;;;;;;4939053;28;20492;-70
2023/04/09 00:35:33;;;;;;;31.70;19.30;;;;;;;;;;4940388;29;20066;-69
2023/04/09 00:38:00;;;;;;;34.78;19.65;;;;;;;;;;4942012;28;20157;-69
2023/04/09 00:40:26;;;;;;;31.77;20.23;;;;;;;;;;4933554;29;20411;-69
2023/04/09 00:42:52;;;;;;;30.38;18.65;;;;;;;;;;4932852;28;20420;-70
2023/04/09 00:45:19;;;;;;;32.50;19.83;;;;;;;;;;4922849;29;20523;-71
2023/04/09 00:47:45;;;;;;;33.70;19.77;;;;;;;;;;4923673;29;20054;-71
2023/04/09 00:50:12;;;;;;;31.90;20.23;;;;;;;;;;4934957;28;20504;-71
2023/04/09 00:52:38;;;;;;;34.92;20.10;;;;;;;;;;4939804;28;20051;-70
2023/04/09 00:55:05;;;;;;;33.35;20.33;;;;;;;;;;4944027;28;20055;-71
2023/04/09 00:57:31;;;;;;;35.58;21.48;;;;;;;;;;4938157;28;20299;-69
2023/04/09 00:59:58;;;;;;;29.63;19.58;;;;;;;;;;4944582;29;20050;-69
2023/04/09 01:02:25;;;;;;;31.42;19.15;;;;;;;;;;4943568;28;20058;-69
2023/04/09 01:04:51;;;;;;;32.45;20.35;;;;;;;;;;4938377;28;20050;-69
2023/04/09 01:07:18;;;;;;;31.63;19.90;;;;;;;;;;4946321;28;20048;-70
2023/04/09 01:09:52;;;;;;;30.40;18.65;;;;;;;;;;4945120;28;20055;-69
2023/04/09 01:12:21;;;;;;;31.63;19.63;;;;;;;;;;4945997;28;20480;-69
2023/04/09 01:14:57;;;;;;;33.17;20.05;;;;;;;;;;4942887;28;20062;-69
2023/04/09 01:17:29;;;;;;;29.98;19.27;;;;;;;;;;4946283;28;20058;-69
2023/04/09 01:20:03;;;;;;;31.58;19.83;;;;;;;;;;4942991;28;20692;-70
2023/04/09 01:22:49;;;;;;;33.75;19.38;;;;;;;;;;4951661;28;20160;-70
2023/04/09 01:25:18;;;;;;;32.65;20.17;;;;;;;;;;4941672;29;20055;-70
2023/04/09 01:28:01;;;;;;;34.55;21.88;;;;;;;;;;4923651;29;20051;-70
2023/04/09 01:30:28;;;;;;;32.45;20.88;;;;;;;;;;4943985;29;20326;-70
2023/04/09 01:32:55;;;;;;;33.35;19.27;;;;;;;;;;4935642;28;20420;-69
2023/04/09 01:35:22;;;;;;;34.15;21.25;;;;;;;;;;4945637;29;20607;-68
2023/04/09 01:37:49;;;;;;;35.88;21.80;;;;;;;;;;4947206;28;20057;-68
2023/04/09 01:40:16;;;;;;;35.67;20.33;;;;;;;;;;4947688;29;20138;-69
2023/04/09 01:42:42;;;;;;;28.73;19.23;;;;;;;;;;4948137;28;20119;-69
2023/04/09 01:45:09;;;;;;;30.70;19.95;;;;;;;;;;4948062;29;20055;-69
2023/04/09 01:47:36;;;;;;;33.72;19.45;;;;;;;;;;4941192;29;20148;-71
2023/04/09 01:50:03;;;;;;;31.05;18.75;;;;;;;;;;4966953;28;20071;-71
2023/04/09 01:52:30;;;;;;;25.38;17.17;;;;;;;;;;4973695;28;20062;-71
2023/04/09 01:54:56;;;;;;;28.30;17.33;;;;;;;;;;4956961;28;20069;-69
2023/04/09 01:57:23;;;;;;;29.30;17.92;;;;;;;;;;4942379;28;20123;-69
2023/04/09 01:59:49;;;;;;;26.45;17.23;;;;;;;;;;4937052;29;20053;-71
2023/04/09 02:02:31;;;;;;;24.73;16.65;;;;;;;;;;4951232;28;20085;-69
2023/04/09 02:05:00;;;;;;;25.98;16.42;;;;;;;;;;4922451;29;20043;-69
2023/04/09 02:07:32;;;;;;;26.23;17.60;;;;;;;;;;4911871;29;20047;-70
2023/04/09 02:09:59;;;;;;;28.13;16.95;;;;;;;;;;4939799;28;20051;-68
2023/04/09 02:12:26;;;;;;;30.10;18.17;;;;;;;;;;4926707;29;21033;-69
2023/04/09 02:14:53;;;;;;;28.63;18.25;;;;;;;;;;4933670;28;20138;-69
2023/04/09 02:17:20;;;;;;;29.38;18.50;;;;;;;;;;4943076;28;20061;-70
2023/04/09 02:19:47;;;;;;;28.52;17.90;;;;;;;;;;4937490;28;20162;-69
2023/04/09 02:22:14;;;;;;;29.13;18.88;;;;;;;;;;4942662;28;20670;-68
2023/04/09 02:24:41;;;;;;;26.77;16.98;;;;;;;;;;4938094;29;20051;-74
2023/04/09 02:27:07;;;;;;;29.42;18.55;;;;;;;;;;4946758;28;20047;-74
2023/04/09 02:29:33;;;;;;;27.27;17.65;;;;;;;;;;4937400;28;20071;-74
2023/04/09 02:32:00;;;;;;;26.73;17.70;;;;;;;;;;4933377;28;20071;-73
2023/04/09 02:34:26;;;;;;;26.70;18.10;;;;;;;;;;4945779;29;20154;-73
2023/04/09 02:36:53;;;;;;;28.83;18.63;;;;;;;;;;4939525;28;20055;-74
2023/04/09 02:39:19;;;;;;;28.95;19.33;;;;;;;;;;4936191;28;20154;-73
2023/04/09 02:41:46;;;;;;;34.83;20.25;;;;;;;;;;4943567;28;20567;-73
2023/04/09 02:44:12;;;;;;;32.92;20.70;;;;;;;;;;4937944;28;20193;-74
2023/04/09 02:46:39;;;;;;;27.05;16.73;;;;;;;;;;4930133;28;20057;-73
2023/04/09 02:49:06;;;;;;;32.78;18.65;;;;;;;;;;4927725;29;20047;-74
2023/04/09 02:51:35;;;;;;;27.63;18.42;;;;;;;;;;4927736;29;20055;-74
2023/04/09 02:54:02;;;;;;;29.23;18.58;;;;;;;;;;4940416;28;20626;-74
2023/04/09 02:56:29;;;;;;;26.92;17.77;;;;;;;;;;4942409;29;20153;-74
2023/04/09 02:58:55;;;;;;;29.95;18.70;;;;;;;;;;4933354;29;20082;-74
2023/04/09 03:01:21;;;;;;;33.40;19.27;;;;;;;;;;4942458;28;20651;-75
2023/04/09 03:03:48;;;;;;;28.77;17.75;;;;;;;;;;4941823;28;20166;-73
2023/04/09 03:06:14;;;;;;;32.05;20.35;;;;;;;;;;4927392;29;20086;-74
2023/04/09 03:08:41;;;;;;;29.73;19.17;;;;;;;;;;4941767;28;20090;-74
2023/04/09 03:11:07;;;;;;;22.60;15.88;;;;;;;;;;4944806;28;20062;-74
2023/04/09 03:13:34;;;;;;;28.60;18.27;;;;;;;;;;4949375;28;20050;-74
2023/04/09 03:16:00;;;;;;;29.17;18.42;;;;;;;;;;4928627;28;20058;-74
2023/04/09 03:18:26;;;;;;;27.83;17.30;;;;;;;;;;4941562;28;20088;-74
2023/04/09 03:20:53;;;;;;;32.83;19.25;;;;;;;;;;4943094;29;20051;-74
2023/04/09 03:23:19;;;;;;;32.92;20.60;;;;;;;;;;4945490;28;20047;-74
2023/04/09 03:25:46;;;;;;;29.63;19.00;;;;;;;;;;4943159;29;20159;-73
2023/04/09 03:28:12;;;;;;;32.10;20.42;;;;;;;;;;4946475;28;20047;-74
2023/04/09 03:30:38;;;;;;;31.90;20.52;;;;;;;;;;4942395;29;20686;-75
2023/04/09 03:33:05;;;;;;;31.50;19.50;;;;;;;;;;4941363;28;20054;-74
2023/04/09 03:35:31;;;;;;;31.88;20.13;;;;;;;;;;4941760;28;20043;-75
2023/04/09 03:37:58;;;;;;;30.52;18.85;;;;;;;;;;4932184;28;20062;-75
2023/04/09 03:40:24;;;;;;;27.15;17.67;;;;;;;;;;4942527;28;20066;-75
2023/04/09 03:42:50;;;;;;;29.20;18.23;;;;;;;;;;4942448;28;20075;-74
2023/04/09 03:45:17;;;;;;;24.13;15.52;;;;;;;;;;4942323;28;20059;-73
2023/04/09 03:47:43;;;;;;;27.15;18.02;;;;;;;;;;4943245;28;20496;-73
2023/04/09 03:50:09;;;;;;;28.73;17.92;;;;;;;;;;4925000;29;20468;-75
2023/04/09 03:52:36;;;;;;;30.25;18.85;;;;;;;;;;4941810;28;20053;-72
2023/04/09 03:55:03;;;;;;;27.25;17.80;;;;;;;;;;4942372;28;20058;-75
2023/04/09 03:57:29;;;;;;;29.27;17.85;;;;;;;;;;4937158;28;20047;-74
2023/04/09 03:59:56;;;;;;;31.02;18.38;;;;;;;;;;4941761;28;20059;-74
2023/04/09 04:02:22;;;;;;;26.33;16.73;;;;;;;;;;4942063;28;20130;-74
2023/04/09 04:04:49;;;;;;;29.92;17.25;;;;;;;;;;4938125;29;20055;-74
2023/04/09 04:07:15;;;;;;;27.30;18.40;;;;;;;;;;4943146;28;20050;-74
2023/04/09 04:09:41;;;;;;;28.98;18.00;;;;;;;;;;4922996;29;20058;-73
2023/04/09 04:12:08;;;;;;;27.77;17.88;;;;;;;;;;4925269;29;20062;-74
2023/04/09 04:14:34;;;;;;;27.50;17.52;;;;;;;;;;4925150;29;20062;-75
2023/04/09 04:17:00;;;;;;;30.08;18.38;;;;;;;;;;4919321;29;20196;-74
2023/04/09 04:19:27;;;;;;;29.25;18.27;;;;;;;;;;4938536;28;20507;-73
2023/04/09 04:21:53;;;;;;;28.27;17.40;;;;;;;;;;4933685;28;20154;-74
2023/04/09 04:24:19;;;;;;;26.92;16.73;;;;;;;;;;4942372;28;20055;-73
2023/04/09 04:26:46;;;;;;;29.90;18.23;;;;;;;;;;4927702;28;20090;-73
2023/04/09 04:29:12;;;;;;;31.08;19.30;;;;;;;;;;4938146;28;20051;-75
2023/04/09 04:31:39;;;;;;;29.33;18.33;;;;;;;;;;4940795;29;20063;-74
2023/04/09 04:34:05;;;;;;;29.73;17.52;;;;;;;;;;4932551;28;20568;-73
2023/04/09 04:36:31;;;;;;;30.40;17.80;;;;;;;;;;4923401;28;20059;-74
2023/04/09 04:38:58;;;;;;;26.13;16.77;;;;;;;;;;4935565;28;20397;-74
2023/04/09 04:41:24;;;;;;;27.85;17.90;;;;;;;;;;4937665;28;20607;-74
2023/04/09 04:43:50;;;;;;;27.40;17.20;;;;;;;;;;4931963;28;20054;-73
2023/04/09 04:46:17;;;;;;;29.30;17.42;;;;;;;;;;4935831;28;20047;-74
2023/04/09 04:48:44;;;;;;;27.77;17.58;;;;;;;;;;4920543;29;20054;-74
2023/04/09 04:51:10;;;;;;;26.60;16.73;;;;;;;;;;4930489;28;20063;-74
2023/04/09 04:53:37;;;;;;;29.80;19.15;;;;;;;;;;4936116;28;20056;-73
2023/04/09 04:56:03;;;;;;;28.75;17.00;;;;;;;;;;4939993;28;20043;-74
2023/04/09 04:58:29;;;;;;;29.00;17.63;;;;;;;;;;4931768;28;20051;-74
2023/04/09 05:00:56;;;;;;;26.13;16.15;;;;;;;;;;4932490;28;20393;-74
2023/04/09 05:03:22;;;;;;;23.92;15.90;;;;;;;;;;4941018;28;20654;-74
2023/04/09 05:05:52;;;;;;;24.40;15.80;;;;;;;;;;4935913;28;20049;-75
2023/04/09 05:08:19;;;;;;;30.48;16.88;;;;;;;;;;4937156;28;20055;-74
2023/04/09 05:10:45;;;;;;;23.17;13.73;;;;;;;;;;4931767;29;20050;-73
2023/04/09 05:13:12;;;;;;;27.33;16.85;;;;;;;;;;4920222;29;20053;-74
2023/04/09 05:15:39;;;;;;;24.27;14.75;;;;;;;;;;4927904;29;20392;-74
2023/04/09 05:18:06;;;;;;;27.55;16.42;;;;;;;;;;4936358;28;20126;-73
2023/04/09 05:20:33;;;;;;;27.13;16.10;;;;;;;;;;4933076;29;20519;-73
2023/04/09 05:23:00;;;;;;;29.38;16.88;;;;;;;;;;4923584;28;20353;-74
2023/04/09 05:25:26;;;;;;;28.17;16.65;;;;;;;;;;4941534;28;20085;-75
2023/04/09 05:27:53;;;;;;;26.75;16.98;;;;;;;;;;4928997;28;20047;-73
2023/04/09 05:30:20;;;;;;;32.80;17.27;;;;;;;;;;4941642;29;20047;-73
2023/04/09 05:32:46;;;;;;;26.90;16.77;;;;;;;;;;4937544;28;20154;-73
2023/04/09 05:35:12;;;;;;;26.95;15.82;;;;;;;;;;4941786;29;20055;-73
2023/04/09 05:37:39;;;;;;;28.98;17.65;;;;;;;;;;4931692;28;20051;-74
2023/04/09 05:40:05;;;;;;;28.92;17.67;;;;;;;;;;4939255;28;20081;-73
2023/04/09 05:42:32;;;;;;;28.88;17.75;;;;;;;;;;4942780;28;20365;-73
2023/04/09 05:44:58;;;;;;;29.40;16.65;;;;;;;;;;4937558;28;20073;-73
2023/04/09 05:47:24;;;;;;;27.88;16.52;;;;;;;;;;4925237;29;20102;-73
2023/04/09 05:49:51;;;;;;;30.65;17.60;;;;;;;;;;4944115;28;20083;-73
2023/04/09 05:52:18;;;;;;;27.92;17.13;;;;;;;;;;4942514;28;20063;-73
2023/04/09 05:54:45;;;;;;;29.67;18.00;;;;;;;;;;4942989;29;20066;-73
2023/04/09 05:57:11;;;;;;;29.02;16.88;;;;;;;;;;4941932;28;20479;-72
2023/04/09 05:59:37;;;;;;;30.25;17.00;;;;;;;;;;4928374;29;20077;-73
2023/04/09 06:02:04;;;;;;;28.13;16.95;;;;;;;;;;4940621;28;20053;-73
2023/04/09 06:04:31;;;;;;;30.98;17.70;;;;;;;;;;4946035;28;20389;-73
2023/04/09 06:06:59;;;;;;;30.48;17.38;;;;;;;;;;4943675;28;20105;-73
2023/04/09 06:09:28;;;;;;;30.20;17.08;;;;;;;;;;4944200;29;20123;-73
2023/04/09 06:11:56;;;;;;;31.45;17.85;;;;;;;;;;4945163;28;20613;-73
2023/04/09 06:14:23;;;;;;;33.05;19.23;;;;;;;;;;4931951;29;20600;-72
2023/04/09 06:16:49;;;;;;;32.45;18.45;;;;;;;;;;4937115;28;20062;-73
2023/04/09 06:19:15;;;;;;;29.38;17.80;;;;;;;;;;4944672;28;20047;-73
2023/04/09 06:21:42;;;;;;;32.85;18.10;;;;;;;;;;4924442;29;20053;-73
2023/04/09 06:24:08;;;;;;;30.00;18.08;;;;;;;;;;4949090;28;20051;-73
2023/04/09 06:26:35;;;;;;;34.60;18.95;;;;;;;;;;4945130;28;20545;-72
2023/04/09 06:29:02;;;;;;;30.13;18.05;;;;;;;;;;4924262;29;20525;-74
2023/04/09 06:31:28;;;;;;;27.25;17.98;;;;;;;;;;4934280;29;20369;-73
2023/04/09 06:33:55;;;;;;;31.92;18.52;;;;;;;;;;4949212;28;20126;-72
2023/04/09 06:36:22;;;;;;;30.80;18.35;;;;;;;;;;4944210;29;20101;-74
2023/04/09 06:38:48;;;;;;;31.25;18.73;;;;;;;;;;4927316;29;20094;-73
2023/04/09 06:41:15;;;;;;;31.42;18.58;;;;;;;;;;4944925;28;20058;-73
2023/04/09 06:43:41;;;;;;;33.60;19.65;;;;;;;;;;4943864;28;20047;-74
2023/04/09 06:46:08;;;;;;;30.42;17.80;;;;;;;;;;4944373;28;20047;-74
2023/04/09 06:48:34;;;;;;;32.97;18.85;;;;;;;;;;4928701;28;20051;-74
2023/04/09 06:51:01;;;;;;;29.23;17.45;;;;;;;;;;4927868;29;20154;-73
2023/04/09 06:53:27;;;;;;;34.45;18.30;;;;;;;;;;4927921;29;20115;-75
2023/04/09 06:55:55;;;;;;;33.28;19.45;;;;;;;;;;4940369;29;20430;-74
2023/04/09 06:58:22;;;;;;;31.33;18.30;;;;;;;;;;4945521;28;20556;-74
2023/04/09 07:00:48;;;;;;;32.45;19.15;;;;;;;;;;4925980;28;20051;-73
2023/04/09 07:03:15;;;;;;;33.45;18.92;;;;;;;;;;4919964;29;20050;-74
2023/04/09 07:05:42;;;;;;;34.58;19.25;;;;;;;;;;4942009;29;20081;-74
2023/04/09 07:08:08;;;;;;;32.55;19.13;;;;;;;;;;4939586;28;20074;-74
2023/04/09 07:10:35;;;;;;;30.10;17.08;;;;;;;;;;4936694;28;20621;-74
2023/04/09 07:13:01;;;;;;;32.88;18.48;;;;;;;;;;4943418;28;20059;-74
2023/04/09 07:15:27;;;;;;;33.20;19.50;;;;;;;;;;4943659;28;20094;-74
2023/04/09 07:17:54;;;;;;;33.80;19.13;;;;;;;;;;4946904;28;20058;-73
2023/04/09 07:20:20;;;;;;;30.38;18.38;;;;;;;;;;4944419;28;20511;-74
2023/04/09 07:22:46;;;;;;;31.75;18.35;;;;;;;;;;4941413;28;20078;-74
2023/04/09 07:25:13;;;;;;;32.17;19.20;;;;;;;;;;4936620;28;20489;-74
2023/04/09 07:27:40;;;;;;;32.38;19.05;;;;;;;;;;4926543;29;20059;-74
2023/04/09 07:30:06;;;;;;;36.40;18.98;;;;;;;;;;4926343;29;20047;-73
2023/04/09 07:32:33;;;;;;;27.63;16.92;;;;;;;;;;4940852;28;20542;-74
2023/04/09 07:35:01;;;;;;;32.72;18.73;;;;;;;;;;4922818;29;20409;-74
2023/04/09 07:37:27;;;;;;;23.48;14.75;;;;;;;;;;4933056;28;20138;-72
2023/04/09 07:39:54;;;;;;;33.20;18.27;;;;;;;;;;4936452;28;20054;-74
2023/04/09 07:42:20;;;;;;;30.92;18.58;;;;;;;;;;4941700;28;20100;-73
2023/04/09 07:44:47;;;;;;;31.77;18.02;;;;;;;;;;4945801;29;20050;-74
2023/04/09 07:47:14;;;;;;;33.33;19.92;;;;;;;;;;4941817;28;20086;-74
2023/04/09 07:49:40;;;;;;;30.75;18.35;;;;;;;;;;4945675;28;20146;-73
2023/04/09 07:52:07;;;;;;;30.85;18.58;;;;;;;;;;4957097;28;20044;-73
2023/04/09 07:54:33;;;;;;;35.67;19.08;;;;;;;;;;4952192;28;20482;-75
2023/04/09 07:57:03;;;;;;;29.52;17.52;;;;;;;;;;4940535;28;20141;-74
2023/04/09 07:59:30;;;;;;;27.73;16.23;;;;;;;;;;4929659;29;20375;-74
2023/04/09 08:01:56;;;;;;;32.58;18.85;;;;;;;;;;4936659;28;20124;-74
2023/04/09 08:04:23;;;;;;;31.48;17.67;;;;;;;;;;4939941;28;20432;-73
2023/04/09 08:06:50;;;;;;;35.72;17.40;;;;;;;;;;4935657;28;20166;-74
2023/04/09 08:09:17;;;;;;;29.65;17.98;;;;;;;;;;4938389;28;20074;-73
2023/04/09 08:11:46;;;;;;;28.48;17.40;;;;;;;;;;4925759;29;20089;-73
2023/04/09 08:14:13;;;;;;;30.50;18.77;;;;;;;;;;4935780;28;20065;-74
2023/04/09 08:16:43;;;;;;;30.98;18.65;;;;;;;;;;4934735;29;20058;-74
2023/04/09 08:19:10;;;;;;;32.15;18.35;;;;;;;;;;4944149;28;20047;-75
2023/04/09 08:21:37;;;;;;;30.90;17.60;;;;;;;;;;4940091;28;20211;-72
2023/04/09 08:24:04;;;;;;;26.38;16.63;;;;;;;;;;4942065;28;20333;-73
2023/04/09 08:26:31;;;;;;;26.52;16.88;;;;;;;;;;4922579;28;20103;-72
2023/04/09 08:28:57;;;;;;;30.50;17.75;;;;;;;;;;4940538;28;20430;-74
2023/04/09 08:31:24;;;;;;;24.92;16.08;;;;;;;;;;4940424;29;20515;-72
2023/04/09 08:33:52;;;;;;;24.75;16.10;;;;;;;;;;4935058;28;20739;-73
2023/04/09 08:36:19;;;;;;;25.15;15.38;;;;;;;;;;4930571;28;20534;-71
2023/04/09 08:38:46;;;;;;;22.42;14.55;;;;;;;;;;4936282;28;20113;-73
2023/04/09 08:41:19;;;;;;;24.95;15.98;;;;;;;;;;4935908;28;20052;-72
2023/04/09 08:43:47;;;;;;;24.05;16.40;;;;;;;;;;4941540;28;20122;-72
2023/04/09 08:46:23;;;;;;;24.38;16.17;;;;;;;;;;4936164;28;20059;-72
2023/04/09 08:48:50;;;;;;;24.38;15.25;;;;;;;;;;4936244;28;20094;-71
2023/04/09 08:51:18;;;;;;;25.38;15.98;;;;;;;;;;4934872;28;20039;-72
2023/04/09 08:53:46;;;;;;;27.25;16.02;;;;;;;;;;4936932;28;20043;-72
2023/04/09 08:56:13;;;;;;;29.40;16.80;;;;;;;;;;4938504;28;20051;-71
2023/04/09 08:58:43;;;;;;;29.80;16.77;;;;;;;;;;4935694;28;20069;-72
2023/04/09 09:01:22;;;;;;;27.88;16.35;;;;;;;;;;4938274;28;20095;-72
2023/04/09 09:03:57;;;;;;;23.55;15.38;;;;;;;;;;4938144;28;20058;-72
2023/04/09 09:06:26;;;;;;;22.27;14.50;;;;;;;;;;4939786;29;20511;-73
2023/04/09 09:09:00;;;;;;;23.23;14.90;;;;;;;;;;4940053;28;20051;-71
2023/04/09 09:11:27;;;;;;;23.65;14.68;;;;;;;;;;4940340;28;20305;-72
2023/04/09 09:13:57;;;;;;;26.20;16.08;;;;;;;;;;4938170;28;20055;-72
2023/04/09 09:16:23;;;;;;;27.95;16.58;;;;;;;;;;4942999;28;20138;-72
2023/04/09 09:18:50;;;;;;;24.20;15.30;;;;;;;;;;4949567;28;20093;-72
2023/04/09 09:21:18;;;;;;;;;;;;;;;;;;4939273;28;20134;-73
2023/04/09 09:23:47;;;;;;;24.38;15.18;;;;;;;;;;4945501;28;20022;-71
2023/04/09 09:26:15;;;;;;;26.05;16.35;;;;;;;;;;4940091;28;20461;-73
2023/04/09 09:28:42;;;;;;;24.55;15.85;;;;;;;;;;4923496;29;20106;-72
2023/04/09 09:31:08;;;;;;;24.70;16.27;;;;;;;;;;4943752;28;20047;-74
2023/04/09 09:33:35;;;;;;;25.25;15.85;;;;;;;;;;4938164;28;20052;-71
2023/04/09 09:36:02;;;;;;;25.58;16.98;;;;;;;;;;4942854;28;20654;-72
2023/04/09 09:38:29;;;;;;;21.70;14.10;;;;;;;;;;4918409;29;20079;-72
2023/04/09 09:40:55;;;;;;;25.05;16.95;;;;;;;;;;4928385;28;20412;-72
2023/04/09 09:43:22;;;;;;;22.45;14.85;;;;;;;;;;4944673;28;20150;-72
2023/04/09 09:45:48;;;;;;;22.65;15.45;;;;;;;;;;4940452;28;20095;-72
2023/04/09 09:48:15;;;;;;;20.80;15.43;;;;;;;;;;4935961;28;20039;-72
2023/04/09 09:50:41;;;;;;;23.05;14.48;;;;;;;;;;4938364;28;20080;-72
2023/04/09 09:53:11;;;;;;;21.17;14.80;;;;;;;;;;4935684;28;20102;-73
2023/04/09 09:55:38;;;;;;;24.05;16.88;;;;;;;;;;4939540;28;20398;-72
2023/04/09 09:58:22;;;;;;;24.08;16.13;;;;;;;;;;4931192;28;20051;-73
2023/04/09 10:00:50;;;;;;;25.27;16.73;;;;;;;;;;4943414;28;20054;-72
2023/04/09 10:03:22;;;;;;;23.52;14.98;;;;;;;;;;4946870;28;20447;-72
2023/04/09 10:05:48;;;;;;;22.77;15.52;;;;;;;;;;4937837;29;20096;-72
2023/04/09 10:08:15;;;;;;;22.48;15.70;;;;;;;;;;4933909;28;20043;-73
2023/04/09 10:10:42;;;;;;;21.30;14.82;;;;;;;;;;4944709;28;20047;-73
2023/04/09 10:13:12;;;;;;;22.85;14.98;;;;;;;;;;4944545;28;20419;-73
2023/04/09 10:15:39;;;;;;;22.35;12.95;;;;;;;;;;4922390;28;20245;-74
2023/04/09 10:18:05;;;;;;;19.15;13.82;;;;;;;;;;4944562;28;20054;-72
2023/04/09 10:20:35;;;;;;;22.67;14.20;;;;;;;;;;4943571;28;20095;-72
2023/04/09 10:23:05;;;;;;;20.05;13.43;;;;;;;;;;4944371;28;20527;-72
2023/04/09 10:25:31;;;;;;;18.25;12.40;;;;;;;;;;4944960;29;20106;-73
2023/04/09 10:27:58;;;;;;;19.00;12.20;;;;;;;;;;4942418;28;20055;-74
2023/04/09 10:30:32;;;;;;;16.80;11.77;;;;;;;;;;4942923;28;20051;-73
2023/04/09 10:33:11;;;;;;;17.08;11.73;;;;;;;;;;4942381;28;20704;-74
2023/04/09 10:35:38;;;;;;;19.52;12.93;;;;;;;;;;4943319;28;20558;-74
2023/04/09 10:38:08;;;;;;;17.00;11.38;;;;;;;;;;4941562;28;20066;-74
2023/04/09 10:40:40;;;;;;;17.73;11.10;;;;;;;;;;4944117;28;20458;-74
2023/04/09 10:43:08;;;;;;;14.80;9.23;;;;;;;;;;4941692;28;20059;-73
2023/04/09 10:45:41;;;;;;;13.40;9.13;;;;;;;;;;4941816;28;20544;-74
2023/04/09 10:48:14;;;;;;;14.55;9.10;;;;;;;;;;4938882;28;20057;-75
2023/04/09 10:50:41;;;;;;;12.55;8.57;;;;;;;;;;4940164;28;20047;-74
2023/04/09 10:53:19;;;;;;;11.23;8.15;;;;;;;;;;4944413;28;20062;-74
2023/04/09 10:55:49;;;;;;;9.55;6.55;;;;;;;;;;4943474;29;20497;-73
2023/04/09 10:58:16;;;;;;;11.43;7.82;;;;;;;;;;4930636;28;20046;-73
2023/04/09 11:00:46;;;;;;;11.63;7.97;;;;;;;;;;4922071;29;20055;-75
2023/04/09 11:03:23;;;;;;;10.02;6.60;;;;;;;;;;4929984;28;20087;-74
2023/04/09 11:05:52;;;;;;;8.57;5.93;;;;;;;;;;4936908;28;20078;-74
2023/04/09 11:08:20;;;;;;;10.52;6.57;;;;;;;;;;4932831;28;20074;-75
2023/04/09 11:10:47;;;;;;;11.13;7.13;;;;;;;;;;4927610;28;20051;-73
2023/04/09 11:13:18;;;;;;;10.55;7.13;;;;;;;;;;4942828;28;20055;-74
2023/04/09 11:15:45;;;;;;;11.77;7.22;;;;;;;;;;4943879;29;20059;-75
2023/04/09 11:18:29;;;;;;;9.35;7.00;;;;;;;;;;4944123;28;20062;-75
2023/04/09 11:20:56;;;;;;;11.98;7.68;;;;;;;;;;4941263;29;20683;-72
2023/04/09 11:23:23;;;;;;;10.38;7.15;;;;;;;;;;4926048;28;20137;-74
2023/04/09 11:25:50;;;;;;;7.85;5.40;;;;;;;;;;4929315;29;20096;-74
2023/04/09 11:28:17;;;;;;;8.32;5.35;;;;;;;;;;4921632;28;20090;-74
2023/04/09 11:30:45;;;;;;;8.05;5.55;;;;;;;;;;4926029;29;20063;-74
2023/04/09 11:33:12;;;;;;;7.38;5.55;;;;;;;;;;4943209;28;20472;-75
2023/04/09 11:35:38;;;;;;;9.95;6.45;;;;;;;;;;4924409;28;20475;-75
2023/04/09 11:38:06;;;;;;;7.55;5.90;;;;;;;;;;4920658;28;20051;-75
2023/04/09 11:40:32;;;;;;;8.95;5.97;;;;;;;;;;4942716;28;20062;-74
2023/04/09 11:42:59;;;;;;;8.18;6.22;;;;;;;;;;4941419;28;20436;-75
2023/04/09 11:45:27;;;;;;;8.95;6.50;;;;;;;;;;4943303;28;20051;-73
2023/04/09 11:47:53;;;;;;;10.55;7.85;;;;;;;;;;4941575;28;20416;-74
2023/04/09 11:50:20;;;;;;;11.48;7.32;;;;;;;;;;4941641;28;20059;-75
2023/04/09 11:52:47;;;;;;;11.15;7.40;;;;;;;;;;4936702;28;20655;-74
2023/04/09 11:55:27;;;;;;;9.43;6.80;;;;;;;;;;4943015;28;20082;-75
2023/04/09 11:57:59;;;;;;;9.55;6.53;;;;;;;;;;4939113;29;20512;-75
2023/04/09 12:00:26;;;;;;;12.07;7.97;;;;;;;;;;4931035;28;20197;-74
2023/04/09 12:03:03;;;;;;;11.35;8.02;;;;;;;;;;4924457;29;20051;-75
2023/04/09 12:05:31;;;;;;;9.63;7.20;;;;;;;;;;4923043;29;20074;-76
2023/04/09 12:07:59;;;;;;;11.23;8.27;;;;;;;;;;4938180;28;20051;-74
2023/04/09 12:10:27;;;;;;;11.95;9.27;;;;;;;;;;4938163;28;20051;-73
2023/04/09 12:12:53;;;;;;;14.63;9.07;;;;;;;;;;4939662;28;20069;-72
2023/04/09 12:15:24;;;;;;;11.95;8.95;;;;;;;;;;4921493;29;20067;-74
2023/04/09 12:17:52;;;;;;;12.10;8.35;;;;;;;;;;4930973;29;20057;-74
2023/04/09 12:20:42;;;;;;;12.80;9.55;;;;;;;;;;4942101;28;20351;-75
2023/04/09 12:23:09;;;;;;;13.98;10.65;;;;;;;;;;4938017;28;20583;-74
2023/04/09 12:25:36;;;;;;;14.75;11.77;;;;;;;;;;4935374;28;20047;-74
2023/04/09 12:28:04;;;;;;;15.53;11.00;;;;;;;;;;4941504;28;20047;-75
2023/04/09 12:30:31;;;;;;;16.70;12.40;;;;;;;;;;4935233;28;20297;-72
2023/04/09 12:32:58;;;;;;;14.80;10.65;;;;;;;;;;4941812;28;20054;-75
2023/04/09 12:35:24;;;;;;;15.73;11.40;;;;;;;;;;4939115;28;20566;-75
2023/04/09 12:37:51;;;;;;;14.48;10.48;;;;;;;;;;4935817;28;20074;-74
2023/04/09 12:40:18;;;;;;;14.35;10.68;;;;;;;;;;4942899;28;20074;-75
2023/04/09 12:42:45;;;;;;;15.20;12.85;;;;;;;;;;4938802;28;20039;-75
2023/04/09 12:45:13;;;;;;;14.55;11.38;;;;;;;;;;4942851;28;20051;-74
2023/04/09 12:47:40;;;;;;;13.68;11.18;;;;;;;;;;4937933;28;20504;-74
2023/04/09 12:50:07;;;;;;;18.05;11.57;;;;;;;;;;4938000;28;20051;-72
2023/04/09 12:52:33;;;;;;;14.65;11.90;;;;;;;;;;4939949;28;20462;-75
2023/04/09 12:55:00;;;;;;;14.73;11.18;;;;;;;;;;4937469;28;20062;-73
2023/04/09 12:57:27;;;;;;;13.43;10.60;;;;;;;;;;4935840;28;20055;-74
2023/04/09 12:59:53;;;;;;;12.95;10.57;;;;;;;;;;4940609;28;20051;-74
2023/04/09 13:02:20;;;;;;;13.15;10.68;;;;;;;;;;4933876;28;20054;-74
2023/04/09 13:04:47;;;;;;;12.90;10.10;;;;;;;;;;4928333;28;20043;-74
2023/04/09 13:07:14;;;;;;;13.50;10.98;;;;;;;;;;4932383;28;20083;-75
2023/04/09 13:09:41;;;;;;;13.98;9.48;;;;;;;;;;4919345;29;20481;-74
2023/04/09 13:12:07;;;;;;;11.82;9.65;;;;;;;;;;4935374;29;20421;-74
2023/04/09 13:14:34;;;;;;;13.32;10.00;;;;;;;;;;4934779;28;20074;-73
2023/04/09 13:17:01;;;;;;;12.27;9.45;;;;;;;;;;4933099;28;20401;-73
2023/04/09 13:19:27;;;;;;;12.88;9.10;;;;;;;;;;4940168;28;20059;-74
2023/04/09 13:21:54;;;;;;;12.27;9.25;;;;;;;;;;4939916;28;20500;-73
2023/04/09 13:24:21;;;;;;;12.73;8.93;;;;;;;;;;4942402;28;20484;-75
2023/04/09 13:26:47;;;;;;;12.05;9.27;;;;;;;;;;4936542;28;20071;-74
2023/04/09 13:29:14;;;;;;;13.32;10.15;;;;;;;;;;4938770;28;20059;-74
2023/04/09 13:31:41;;;;;;;12.02;9.63;;;;;;;;;;4937306;28;20051;-77
2023/04/09 13:34:07;;;;;;;13.18;9.38;;;;;;;;;;4930088;28;20051;-76
2023/04/09 13:36:34;;;;;;;13.00;9.43;;;;;;;;;;4932902;28;20131;-75
2023/04/09 13:39:03;;;;;;;11.85;9.50;;;;;;;;;;4932922;28;20110;-77
2023/04/09 13:41:32;;;;;;;11.57;8.85;;;;;;;;;;4923191;29;20142;-76
2023/04/09 13:43:59;;;;;;;11.48;8.65;;;;;;;;;;4930038;28;20134;-76
2023/04/09 13:46:26;;;;;;;9.95;7.88;;;;;;;;;;4924679;29;20491;-76
2023/04/09 13:48:53;;;;;;;11.75;8.57;;;;;;;;;;4935836;28;20061;-76
2023/04/09 13:51:24;;;;;;;11.60;8.80;;;;;;;;;;4941491;28;20142;-76
2023/04/09 13:53:51;;;;;;;11.85;8.75;;;;;;;;;;4939126;28;20055;-75
2023/04/09 13:56:17;;;;;;;9.75;7.63;;;;;;;;;;4938377;28;20059;-77
2023/04/09 13:58:44;;;;;;;9.95;8.10;;;;;;;;;;4935218;28;20384;-75
2023/04/09 14:01:11;;;;;;;10.48;8.50;;;;;;;;;;4944720;28;20470;-76
2023/04/09 14:03:38;;;;;;;10.57;8.55;;;;;;;;;;4937780;28;20051;-76
2023/04/09 14:06:07;;;;;;;9.05;7.55;;;;;;;;;;4954475;28;20050;-76
2023/04/09 14:08:34;;;;;;;11.00;8.63;;;;;;;;;;4943628;29;20502;-76
2023/04/09 14:11:00;;;;;;;10.13;7.70;;;;;;;;;;4946913;28;20055;-76
2023/04/09 14:13:28;;;;;;;10.05;8.45;;;;;;;;;;4948051;28;20051;-76
2023/04/09 14:15:54;;;;;;;10.98;8.52;;;;;;;;;;4925417;29;20103;-75
2023/04/09 14:18:22;;;;;;;;;;;;;;;;;;4946344;28;20078;-75
2023/04/09 14:20:48;;;;;;;10.18;7.57;;;;;;;;;;4946103;28;19926;-76
2023/04/09 14:23:15;;;;;;;9.70;7.72;;;;;;;;;;4952722;28;20242;-74